createdAt,value
2023-03-02T00:02:09.685Z,100260.41
2023-03-02T00:04:47.229Z,100259.53
2023-03-02T00:07:22.571Z,100264.56
2023-03-02T00:09:50.020Z,100257.84
2023-03-02T00:12:17.291Z,100261.59
2023-03-02T00:14:45.144Z,100260.69
2023-03-02T00:17:12.640Z,100253.19
2023-03-02T00:19:40.011Z,100253.97
2023-03-02T00:22:08.206Z,100256.94
2023-03-02T00:24:36.315Z,100264.56
2023-03-02T00:27:03.561Z,100261.22
2023-03-02T00:29:30.810Z,100262.50
2023-03-02T00:31:58.034Z,100259.81
2023-03-02T00:34:25.375Z,100261.47
2023-03-02T00:36:52.712Z,100262.50
2023-03-02T00:39:20.274Z,100259.13
2023-03-02T00:41:48.694Z,100259.41
2023-03-02T00:44:19.909Z,100268.09
2023-03-02T00:46:47.297Z,100264.19
2023-03-02T00:49:14.673Z,100273.53
2023-03-02T00:51:41.853Z,100264.56
2023-03-02T00:54:09.438Z,100261.34
2023-03-02T00:56:37.213Z,100264.56
2023-03-02T00:59:26.480Z,100261.22
2023-03-02T01:02:07.516Z,100250.13
2023-03-02T01:04:40.966Z,100250.88
2023-03-02T01:07:18.255Z,100251.38
2023-03-02T01:09:46.057Z,100252.16
2023-03-02T01:12:16.689Z,100242.59
2023-03-02T01:14:48.791Z,100245.84
2023-03-02T01:18:24.845Z,100241.53
2023-03-02T01:21:10.238Z,100236.09
2023-03-02T01:23:37.872Z,100235.59
2023-03-02T01:26:05.630Z,100230.44
2023-03-02T01:28:33.129Z,100241.81
2023-03-02T01:31:02.679Z,100241.03
2023-03-02T01:33:31.356Z,100230.66
2023-03-02T01:35:58.612Z,100226.28
2023-03-02T01:38:26.901Z,100217.75
2023-03-02T01:40:54.299Z,100218.75
2023-03-02T01:43:21.504Z,100218.00
2023-03-02T01:46:07.204Z,100213.38
2023-03-02T01:49:03.667Z,100217.00
2023-03-02T01:51:47.164Z,100214.25
2023-03-02T01:54:22.875Z,100207.91
2023-03-02T01:57:00.272Z,100205.47
2023-03-02T01:59:31.376Z,100210.00
2023-03-02T02:02:05.110Z,100201.78
2023-03-02T02:04:34.592Z,100200.00
2023-03-02T02:07:07.763Z,100196.09
2023-03-02T02:09:50.030Z,100207.38
2023-03-02T02:12:23.329Z,100201.44
2023-03-02T02:14:51.790Z,100199.00
2023-03-02T02:17:19.593Z,100204.00
2023-03-02T02:20:32.518Z,100203.88
2023-03-02T02:23:43.541Z,100190.22
2023-03-02T02:26:29.526Z,100185.81
2023-03-02T02:29:07.933Z,100187.91
2023-03-02T02:31:50.573Z,100183.91
2023-03-02T02:34:37.890Z,100183.28
2023-03-02T02:37:45.431Z,100184.03
2023-03-02T02:40:55.551Z,100185.22
2023-03-02T02:43:30.090Z,100181.13
2023-03-02T02:45:59.538Z,100172.81
2023-03-02T02:48:31.385Z,100175.16
2023-03-02T02:51:00.559Z,100170.22
2023-03-02T02:53:42.860Z,100174.94
2023-03-02T02:56:12.389Z,100171.59
2023-03-02T02:58:50.438Z,100172.75
2023-03-02T03:01:25.850Z,100165.00
2023-03-02T03:04:00.335Z,100164.88
2023-03-02T03:06:42.152Z,100169.00
2023-03-02T03:09:11.842Z,100160.50
2023-03-02T03:12:16.976Z,100161.47
2023-03-02T03:14:44.609Z,100161.75
2023-03-02T03:17:12.853Z,100157.53
2023-03-02T03:19:49.846Z,100161.47
2023-03-02T03:22:18.136Z,100163.50
2023-03-02T03:24:48.902Z,100160.84
2023-03-02T03:27:18.146Z,100160.63
2023-03-02T03:29:50.297Z,100154.88
2023-03-02T03:32:20.413Z,100154.31
2023-03-02T03:34:50.111Z,100157.41
2023-03-02T03:37:25.803Z,100163.56
2023-03-02T03:39:53.578Z,100154.47
2023-03-02T03:42:22.596Z,100151.75
2023-03-02T03:44:50.055Z,100157.84
2023-03-02T03:47:17.470Z,100163.84
2023-03-02T03:49:45.329Z,100159.88
2023-03-02T03:52:12.660Z,100154.53
2023-03-02T03:56:39.698Z,100153.25
2023-03-02T03:59:10.485Z,100160.25
2023-03-02T04:01:55.502Z,100155.34
2023-03-02T04:04:31.001Z,100158.72
2023-03-02T04:06:59.727Z,100159.50
2023-03-02T04:09:27.277Z,100155.59
2023-03-02T04:11:57.176Z,100162.00
2023-03-02T04:14:25.886Z,100164.63
2023-03-02T04:16:55.547Z,100168.41
2023-03-02T04:19:24.388Z,100166.97
2023-03-02T04:21:55.391Z,100159.44
2023-03-02T04:24:23.802Z,100167.88
2023-03-02T04:26:53.513Z,100164.69
2023-03-02T04:29:21.557Z,100166.78
2023-03-02T04:31:48.831Z,100161.47
2023-03-02T04:34:17.402Z,100161.22
2023-03-02T04:36:45.905Z,100161.84
2023-03-02T04:39:18.790Z,100159.66
2023-03-02T04:41:50.182Z,100160.19
2023-03-02T04:44:20.029Z,100165.22
2023-03-02T04:46:49.251Z,100165.72
2023-03-02T04:49:19.665Z,100160.06
2023-03-02T04:51:49.294Z,100169.63
2023-03-02T04:54:24.849Z,100158.50
2023-03-02T04:56:52.854Z,100158.50
2023-03-02T04:59:28.340Z,100158.50
2023-03-02T05:02:00.061Z,100162.09
2023-03-02T05:04:29.615Z,100163.28
2023-03-02T05:06:57.991Z,100159.13
2023-03-02T05:09:30.822Z,100155.59
2023-03-02T05:12:00.853Z,100157.69
2023-03-02T05:14:29.205Z,100155.09
2023-03-02T05:16:56.535Z,100156.38
2023-03-02T05:19:23.850Z,100157.91
2023-03-02T05:21:51.080Z,100157.53
2023-03-02T05:24:18.446Z,100159.22
2023-03-02T05:26:45.655Z,100162.47
2023-03-02T05:29:12.781Z,100153.41
2023-03-02T05:31:44.507Z,100156.06
2023-03-02T05:34:16.154Z,100148.81
2023-03-02T05:36:45.440Z,100152.59
2023-03-02T05:39:13.142Z,100158.66
2023-03-02T05:41:40.858Z,100154.28
2023-03-02T05:44:10.193Z,100152.13
2023-03-02T05:46:37.942Z,100156.94
2023-03-02T05:49:05.404Z,100162.53
2023-03-02T05:51:32.564Z,100161.50
2023-03-02T05:53:59.835Z,100160.75
2023-03-02T05:56:27.009Z,100161.25
2023-03-02T05:58:54.336Z,100174.44
2023-03-02T06:01:21.596Z,100174.44
2023-03-02T06:03:48.814Z,100175.16
2023-03-02T06:06:16.959Z,100175.41
2023-03-02T06:08:44.687Z,100177.72
2023-03-02T06:11:13.503Z,100179.53
2023-03-02T06:13:40.791Z,100181.88
2023-03-02T06:16:09.682Z,100179.84
2023-03-02T06:18:40.329Z,100178.13
2023-03-02T06:21:09.116Z,100180.97
2023-03-02T06:23:36.401Z,100179.28
2023-03-02T06:26:10.846Z,100179.16
2023-03-02T06:28:51.491Z,100180.56
2023-03-02T06:31:19.874Z,100185.44
2023-03-02T06:33:47.173Z,100179.78
2023-03-02T06:36:15.058Z,100178.97
2023-03-02T06:38:42.443Z,100185.19
2023-03-02T06:41:09.589Z,100181.81
2023-03-02T06:43:36.712Z,100178.28
2023-03-02T06:46:04.483Z,100186.16
2023-03-02T06:48:31.723Z,100182.75
2023-03-02T06:50:58.964Z,100182.44
2023-03-02T06:53:26.354Z,100179.59
2023-03-02T06:55:53.612Z,100180.28
2023-03-02T06:58:20.881Z,100183.88
2023-03-02T07:00:48.124Z,100181.75
2023-03-02T07:03:15.418Z,100183.47
2023-03-02T07:05:44.564Z,100180.31
2023-03-02T07:08:13.165Z,100178.06
2023-03-02T07:10:40.342Z,100183.53
2023-03-02T07:13:09.232Z,100186.25
2023-03-02T07:15:39.861Z,100178.31
2023-03-02T07:18:09.296Z,100181.47
2023-03-02T07:20:37.038Z,100186.78
2023-03-02T07:23:05.972Z,100188.25
2023-03-02T07:25:33.223Z,100193.91
2023-03-02T07:28:00.396Z,100189.28
2023-03-02T07:30:27.649Z,100195.50
2023-03-02T07:32:54.913Z,100193.47
2023-03-02T07:35:22.054Z,100201.72
2023-03-02T07:37:51.904Z,100200.00
2023-03-02T07:40:19.378Z,100195.97
2023-03-02T07:42:46.625Z,100201.72
2023-03-02T07:45:16.933Z,100203.00
2023-03-02T07:47:44.569Z,100195.66
2023-03-02T07:50:12.260Z,100195.44
2023-03-02T07:52:40.079Z,100200.41
2023-03-02T07:55:08.173Z,100201.88
2023-03-02T07:57:35.521Z,100190.56
2023-03-02T08:00:04.529Z,100195.53
2023-03-02T08:02:41.698Z,100191.69
2023-03-02T08:05:11.216Z,100192.13
2023-03-02T08:07:38.641Z,100199.69
2023-03-02T08:10:07.047Z,100198.19
2023-03-02T08:12:34.341Z,100200.03
2023-03-02T08:15:03.604Z,100199.44
2023-03-02T08:17:33.507Z,100197.06
2023-03-02T08:20:01.185Z,100191.38
2023-03-02T08:22:28.426Z,100200.19
2023-03-02T08:24:55.708Z,100198.38
2023-03-02T08:27:23.040Z,100188.19
2023-03-02T08:29:50.266Z,100190.19
2023-03-02T08:32:17.486Z,100190.91
2023-03-02T08:34:44.744Z,100189.22
2023-03-02T08:37:11.972Z,100192.69
2023-03-02T08:39:39.188Z,100187.38
2023-03-02T08:42:06.388Z,100186.59
2023-03-02T08:44:33.692Z,100188.88
2023-03-02T08:47:00.905Z,100188.59
2023-03-02T08:49:28.155Z,100186.06
2023-03-02T08:51:56.437Z,100180.09
2023-03-02T08:54:23.994Z,100181.44
2023-03-02T08:56:51.503Z,100182.06
2023-03-02T08:59:18.967Z,100180.69
2023-03-02T09:01:46.216Z,100178.66
2023-03-02T09:04:13.604Z,100179.06
2023-03-02T09:06:44.172Z,100179.47
2023-03-02T09:09:14.557Z,100177.88
2023-03-02T09:11:43.561Z,100169.69
2023-03-02T09:14:12.494Z,100172.13
2023-03-02T09:16:39.841Z,100168.59
2023-03-02T09:19:07.259Z,100174.81
2023-03-02T09:21:34.893Z,100175.72
2023-03-02T09:24:02.399Z,100169.91
2023-03-02T09:26:29.636Z,100170.09
2023-03-02T09:28:57.204Z,100174.31
2023-03-02T09:31:24.655Z,100175.50
2023-03-02T09:33:51.986Z,100165.59
2023-03-02T09:36:26.106Z,100173.09
2023-03-02T09:38:53.778Z,100176.19
2023-03-02T09:41:20.933Z,100174.09
2023-03-02T09:44:53.395Z,100181.91
2023-03-02T09:47:58.964Z,100186.41
2023-03-02T09:50:53.745Z,100187.00
2023-03-02T09:53:58.387Z,100186.53
2023-03-02T09:56:26.483Z,100187.19
2023-03-02T09:59:09.186Z,100194.81
2023-03-02T10:01:48.220Z,100190.41
2023-03-02T10:04:33.396Z,100193.50
2023-03-02T10:07:28.754Z,100189.53
2023-03-02T10:10:10.074Z,100191.13
2023-03-02T10:13:26.993Z,100184.28
2023-03-02T10:16:47.126Z,100182.56
2023-03-02T10:19:33.900Z,100186.16
2023-03-02T10:22:22.074Z,100179.50
2023-03-02T10:24:51.972Z,100178.28
2023-03-02T10:27:43.001Z,100182.75
2023-03-02T10:30:33.361Z,100182.78
2023-03-02T10:33:14.037Z,100183.34
2023-03-02T10:35:49.225Z,100176.13
2023-03-02T10:38:25.703Z,100175.56
2023-03-02T10:41:01.967Z,100176.97
2023-03-02T10:43:49.088Z,100176.63
2023-03-02T10:46:16.504Z,100175.28
2023-03-02T10:48:56.611Z,100168.91
2023-03-02T10:51:28.250Z,100170.69
2023-03-02T10:54:14.081Z,100171.50
2023-03-02T10:56:52.882Z,100170.84
2023-03-02T10:59:26.095Z,100165.19
2023-03-02T11:02:17.032Z,100154.09
2023-03-02T11:04:45.156Z,100158.44
2023-03-02T11:07:22.402Z,100152.69
2023-03-02T11:10:18.082Z,100155.66
2023-03-02T11:12:50.263Z,100147.34
2023-03-02T11:15:40.928Z,100146.47
2023-03-02T11:18:34.005Z,100143.41
2023-03-02T11:21:17.480Z,100145.25
2023-03-02T11:24:29.860Z,100142.31
2023-03-02T11:27:11.944Z,100134.63
2023-03-02T11:30:00.751Z,100136.63
2023-03-02T11:32:38.484Z,100138.66
2023-03-02T11:35:24.821Z,100135.31
2023-03-02T11:37:55.263Z,100132.00
2023-03-02T11:40:41.816Z,100129.94
2023-03-02T11:43:12.245Z,100131.84
2023-03-02T11:45:47.977Z,100134.63
2023-03-02T11:48:49.826Z,100126.03
2023-03-02T11:51:29.091Z,100128.00
2023-03-02T11:54:02.848Z,100131.84
2023-03-02T11:56:38.549Z,100129.56
2023-03-02T11:59:19.420Z,100130.97
2023-03-02T12:01:50.804Z,100124.78
2023-03-02T12:04:36.946Z,100123.56
2023-03-02T12:07:27.073Z,100116.09
2023-03-02T12:10:46.078Z,100110.63
2023-03-02T12:13:34.382Z,100106.72
2023-03-02T12:16:01.984Z,100113.16
2023-03-02T12:18:53.128Z,100099.31
2023-03-02T12:21:23.879Z,100091.88
2023-03-02T12:23:51.017Z,100097.41
2023-03-02T12:26:20.893Z,100084.75
2023-03-02T12:29:13.850Z,100088.03
2023-03-02T12:31:43.728Z,100074.97
2023-03-02T12:34:43.194Z,100084.38
2023-03-02T12:37:29.932Z,100077.28
2023-03-02T12:40:40.485Z,100074.28
2023-03-02T12:43:35.121Z,100068.59
2023-03-02T12:46:30.314Z,100057.78
2023-03-02T12:49:42.086Z,100064.69
2023-03-02T12:52:31.543Z,100057.97
2023-03-02T12:55:19.051Z,100065.69
2023-03-02T12:57:58.351Z,100058.50
2023-03-02T13:00:31.362Z,100053.59
2023-03-02T13:03:06.951Z,100047.78
2023-03-02T13:05:37.534Z,100055.22
2023-03-02T13:08:28.821Z,100052.91
2023-03-02T13:11:01.621Z,100059.28
2023-03-02T13:13:45.305Z,100056.69
2023-03-02T13:16:32.362Z,100053.19
2023-03-02T13:19:05.845Z,100050.28
2023-03-02T13:21:39.376Z,100045.13
2023-03-02T13:24:59.133Z,100048.16
2023-03-02T13:27:27.810Z,100054.47
2023-03-02T13:29:56.538Z,100048.72
2023-03-02T13:32:41.765Z,100045.56
2023-03-02T13:35:26.956Z,100045.28
2023-03-02T13:38:06.196Z,100041.56
2023-03-02T13:40:40.543Z,100041.91
2023-03-02T13:43:30.211Z,100041.59
2023-03-02T13:46:11.139Z,100031.31
2023-03-02T13:48:38.382Z,100039.31
2023-03-02T13:51:19.481Z,100032.91
2023-03-02T13:54:04.002Z,100039.38
2023-03-02T13:56:40.358Z,100030.47
2023-03-02T13:59:15.751Z,100030.97
2023-03-02T14:01:44.114Z,100039.31
2023-03-02T14:04:17.579Z,100036.44
2023-03-02T14:06:46.068Z,100039.66
2023-03-02T14:09:14.308Z,100033.94
2023-03-02T14:11:53.128Z,100037.41
2023-03-02T14:14:25.246Z,100038.53
2023-03-02T14:16:52.548Z,100037.81
2023-03-02T14:19:20.144Z,100033.66
2023-03-02T14:21:47.998Z,100032.59
2023-03-02T14:24:15.800Z,100032.38
2023-03-02T14:26:47.786Z,100030.88
2023-03-02T14:29:32.096Z,100030.88
2023-03-02T14:32:04.417Z,100029.47
2023-03-02T14:34:31.725Z,100031.97
2023-03-02T14:37:05.070Z,100035.09
2023-03-02T14:39:58.987Z,100030.47
2023-03-02T14:42:26.358Z,100028.78
2023-03-02T14:44:53.623Z,100031.66
2023-03-02T14:47:21.777Z,100026.19
2023-03-02T14:49:49.451Z,100026.91
2023-03-02T14:52:52.782Z,100030.19
2023-03-02T14:55:31.267Z,100033.44
2023-03-02T14:58:05.089Z,100028.34
2023-03-02T15:00:32.583Z,100034.91
2023-03-02T15:02:59.919Z,100038.13
2023-03-02T15:05:27.189Z,100031.06
2023-03-02T15:07:58.811Z,100025.16
2023-03-02T15:10:26.442Z,100022.09
2023-03-02T15:12:53.596Z,100016.56
2023-03-02T15:15:20.973Z,100015.38
2023-03-02T15:17:48.122Z,100012.72
2023-03-02T15:20:16.856Z,100010.59
2023-03-02T15:22:44.319Z,100000.72
2023-03-02T15:25:11.823Z,100007.97
2023-03-02T15:27:39.362Z,100008.81
2023-03-02T15:30:07.808Z,100016.19
2023-03-02T15:32:37.279Z,100009.16
2023-03-02T15:35:05.423Z,100010.53
2023-03-02T15:37:32.585Z,100012.16
2023-03-02T15:39:59.795Z,100020.38
2023-03-02T15:42:27.144Z,100007.03
2023-03-02T15:44:54.409Z,99999.94
2023-03-02T15:47:21.728Z,100012.25
2023-03-02T15:49:49.083Z,100009.72
2023-03-02T15:52:16.610Z,100017.22
2023-03-02T15:54:43.823Z,100005.34
2023-03-02T15:57:11.461Z,100002.94
2023-03-02T15:59:38.732Z,100013.47
2023-03-02T16:02:05.973Z,100014.38
2023-03-02T16:04:34.025Z,100010.97
2023-03-02T16:07:01.504Z,100018.88
2023-03-02T16:09:30.893Z,100014.31
2023-03-02T16:11:58.193Z,100017.59
2023-03-02T16:14:25.582Z,100014.00
2023-03-02T16:16:52.891Z,100013.19
2023-03-02T16:19:20.273Z,100013.38
2023-03-02T16:21:48.487Z,100021.22
2023-03-02T16:24:17.019Z,100016.63
2023-03-02T16:26:45.006Z,100011.13
2023-03-02T16:29:14.969Z,100018.78
2023-03-02T16:31:47.058Z,100017.50
2023-03-02T16:34:14.691Z,100018.16
2023-03-02T16:36:42.395Z,100023.28
2023-03-02T16:39:11.786Z,100029.38
2023-03-02T16:41:42.747Z,100037.66
2023-03-02T16:44:14.473Z,100038.91
2023-03-02T16:46:43.300Z,100034.97
2023-03-02T16:49:13.706Z,100036.38
2023-03-02T16:51:42.606Z,100031.00
2023-03-02T16:54:11.275Z,100039.44
2023-03-02T16:56:39.662Z,100033.06
2023-03-02T16:59:06.934Z,100045.91
2023-03-02T17:01:34.217Z,100042.91
2023-03-02T17:04:02.791Z,100044.38
2023-03-02T17:06:31.550Z,100045.88
2023-03-02T17:08:58.710Z,100045.41
2023-03-02T17:11:26.009Z,100051.34
2023-03-02T17:13:53.266Z,100051.25
2023-03-02T17:16:20.757Z,100053.03
2023-03-02T17:18:48.192Z,100057.44
2023-03-02T17:21:17.293Z,100056.94
2023-03-02T17:23:47.880Z,100044.38
2023-03-02T17:26:16.901Z,100053.50
2023-03-02T17:28:44.133Z,100064.72
2023-03-02T17:31:11.488Z,100062.84
2023-03-02T17:33:39.339Z,100070.03
2023-03-02T17:36:11.843Z,100061.09
2023-03-02T17:38:40.129Z,100067.19
2023-03-02T17:41:10.489Z,100064.56
2023-03-02T17:43:41.019Z,100067.28
2023-03-02T17:46:25.512Z,100074.22
2023-03-02T17:48:56.960Z,100077.50
2023-03-02T17:51:26.625Z,100082.94
2023-03-02T17:53:56.077Z,100077.88
2023-03-02T17:56:27.347Z,100081.50
2023-03-02T17:59:02.138Z,100080.09
2023-03-02T18:01:30.493Z,100087.69
2023-03-02T18:03:58.441Z,100079.19
2023-03-02T18:06:25.771Z,100085.53
2023-03-02T18:08:53.592Z,100090.34
2023-03-02T18:11:23.899Z,100093.41
2023-03-02T18:13:54.865Z,100090.59
2023-03-02T18:16:25.183Z,100097.84
2023-03-02T18:18:54.022Z,100100.66
2023-03-02T18:21:22.158Z,100093.13
2023-03-02T18:23:49.444Z,100094.41
2023-03-02T18:26:16.889Z,100095.53
2023-03-02T18:28:44.195Z,100106.84
2023-03-02T18:31:16.003Z,100100.44
2023-03-02T18:33:44.226Z,100100.22
2023-03-02T18:36:12.103Z,100109.06
2023-03-02T18:38:39.480Z,100111.84
2023-03-02T18:41:08.483Z,100104.06
2023-03-02T18:43:40.996Z,100101.84
2023-03-02T18:46:33.461Z,100104.84
2023-03-02T18:49:00.944Z,100099.84
2023-03-02T18:51:28.496Z,100100.63
2023-03-02T18:53:56.218Z,100097.53
2023-03-02T18:56:24.779Z,100101.44
2023-03-02T18:58:52.384Z,100108.66
2023-03-02T19:01:20.657Z,100103.03
2023-03-02T19:03:49.055Z,100120.75
2023-03-02T19:06:16.732Z,100115.59
2023-03-02T19:08:44.101Z,100114.00
2023-03-02T19:11:11.832Z,100111.66
2023-03-02T19:13:39.148Z,100122.75
2023-03-02T19:16:07.289Z,100123.28
2023-03-02T19:18:34.770Z,100122.38
2023-03-02T19:21:04.248Z,100115.47
2023-03-02T19:23:33.217Z,100120.38
2023-03-02T19:26:01.103Z,100122.56
2023-03-02T19:28:28.507Z,100115.34
2023-03-02T19:30:56.164Z,100122.34
2023-03-02T19:33:24.727Z,100134.31
2023-03-02T19:35:52.021Z,100131.19
2023-03-02T19:38:19.347Z,100133.69
2023-03-02T19:40:46.648Z,100138.47
2023-03-02T19:43:13.879Z,100147.41
2023-03-02T19:45:41.263Z,100144.38
2023-03-02T19:48:11.309Z,100151.66
2023-03-02T19:50:38.626Z,100151.97
2023-03-02T19:53:06.602Z,100152.34
2023-03-02T19:55:34.127Z,100165.34
2023-03-02T19:58:02.248Z,100162.63
2023-03-02T20:00:33.168Z,100168.63
2023-03-02T20:03:00.576Z,100166.16
2023-03-02T20:05:28.138Z,100165.72
2023-03-02T20:07:55.696Z,100172.94
2023-03-02T20:10:44.406Z,100171.84
2023-03-02T20:13:12.556Z,100175.44
2023-03-02T20:15:44.489Z,100168.97
2023-03-02T20:18:18.794Z,100172.22
2023-03-02T20:20:48.410Z,100171.88
2023-03-02T20:23:16.518Z,100175.25
2023-03-02T20:25:44.144Z,100172.00
2023-03-02T20:28:17.940Z,100173.19
2023-03-02T20:30:58.487Z,100174.44
2023-03-02T20:33:34.149Z,100175.31
2023-03-02T20:36:03.752Z,100164.44
2023-03-02T20:38:48.891Z,100171.25
2023-03-02T20:41:17.763Z,100167.63
2023-03-02T20:43:45.089Z,100169.66
2023-03-02T20:46:27.795Z,100167.69
2023-03-02T20:48:55.689Z,100170.72
2023-03-02T20:51:23.958Z,100168.44
2023-03-02T20:53:53.066Z,100163.72
2023-03-02T20:56:22.100Z,100167.59
2023-03-02T20:58:50.120Z,100173.16
2023-03-02T21:01:20.348Z,100167.28
2023-03-02T21:03:47.545Z,100161.22
2023-03-02T21:06:15.765Z,100166.66
2023-03-02T21:08:44.886Z,100168.81
2023-03-02T21:11:18.731Z,100169.66
2023-03-02T21:13:48.912Z,100163.78
2023-03-02T21:16:26.664Z,100177.56
2023-03-02T21:18:57.424Z,100172.81
2023-03-02T21:21:39.437Z,100175.16
2023-03-02T21:24:12.812Z,100175.03
2023-03-02T21:26:41.531Z,100177.97
2023-03-02T21:29:09.422Z,100170.38
2023-03-02T21:31:36.646Z,100164.16
2023-03-02T21:34:04.405Z,100161.72
2023-03-02T21:36:32.227Z,100161.41
2023-03-02T21:38:59.554Z,100169.53
2023-03-02T21:41:26.860Z,100166.91
2023-03-02T21:43:54.545Z,100166.72
2023-03-02T21:46:23.938Z,100170.78
2023-03-02T21:48:51.677Z,100175.88
2023-03-02T21:51:19.200Z,100174.41
2023-03-02T21:53:46.853Z,100179.91
2023-03-02T21:56:22.997Z,100179.72
2023-03-02T21:58:53.852Z,100187.50
2023-03-02T22:01:22.587Z,100182.09
2023-03-02T22:03:50.242Z,100178.91
2023-03-02T22:06:27.220Z,100175.47
2023-03-02T22:08:56.920Z,100178.16
2023-03-02T22:11:36.933Z,100172.06
2023-03-02T22:14:17.610Z,100171.34
2023-03-02T22:16:48.042Z,100178.59
2023-03-02T22:19:31.167Z,100171.66
2023-03-02T22:22:01.097Z,100169.13
2023-03-02T22:24:32.616Z,100162.59
2023-03-02T22:27:32.090Z,100168.06
2023-03-02T22:30:03.048Z,100174.84
2023-03-02T22:32:37.091Z,100160.38
2023-03-02T22:35:26.613Z,100165.09
2023-03-02T22:38:07.841Z,100171.00
2023-03-02T22:40:35.879Z,100153.50
2023-03-02T22:43:18.575Z,100160.88
2023-03-02T22:45:45.761Z,100159.00
2023-03-02T22:48:26.040Z,100159.59
2023-03-02T22:50:53.297Z,100159.72
2023-03-02T22:53:28.974Z,100157.81
2023-03-02T22:56:03.881Z,100155.31
2023-03-02T22:58:33.595Z,100153.81
2023-03-02T23:01:02.287Z,100151.56
2023-03-02T23:03:41.263Z,100150.91
2023-03-02T23:06:28.525Z,100143.09
2023-03-02T23:09:03.213Z,100140.50
2023-03-02T23:11:40.866Z,100142.28
2023-03-02T23:15:00.145Z,100144.06
2023-03-02T23:17:35.861Z,100136.06
2023-03-02T23:20:06.783Z,100144.78
2023-03-02T23:22:34.136Z,100139.16
2023-03-02T23:25:01.288Z,100134.44
2023-03-02T23:27:29.516Z,100134.13
2023-03-02T23:29:56.640Z,100125.13
2023-03-02T23:32:23.960Z,100134.28
2023-03-02T23:34:51.277Z,100131.13
2023-03-02T23:37:18.579Z,100123.78
2023-03-02T23:39:46.233Z,100133.50
2023-03-02T23:42:13.597Z,100128.38
2023-03-02T23:44:40.828Z,100135.31
2023-03-02T23:47:07.983Z,100133.75
2023-03-02T23:49:35.155Z,100131.41
2023-03-02T23:52:03.531Z,100129.13
2023-03-02T23:54:30.692Z,100128.03
2023-03-02T23:56:57.899Z,100129.03
2023-03-02T23:59:25.075Z,100123.41
